sensor_id;sensor_type;location;lat;lon;timestamp;P1;durP1;ratioP1;P2;durP2;ratioP2
9424;SDS011;17139;52.140;11.636;2023-11-21T00:00:14;7.10;;;4.57;;
9424;SDS011;17139;52.140;11.636;2023-11-21T00:02:43;7.07;;;3.97;;
9424;SDS011;17139;52.140;11.636;2023-11-21T00:05:11;7.53;;;3.73;;
9424;SDS011;17139;52.140;11.636;2023-11-21T00:07:40;8.80;;;4.03;;
9424;SDS011;17139;52.140;11.636;2023-11-21T00:10:08;8.63;;;3.93;;
9424;SDS011;17139;52.140;11.636;2023-11-21T00:12:37;3.80;;;3.60;;
9424;SDS011;17139;52.140;11.636;2023-11-21T00:15:07;7.13;;;3.83;;
9424;SDS011;17139;52.140;11.636;2023-11-21T00:17:36;4.93;;;4.03;;
9424;SDS011;17139;52.140;11.636;2023-11-21T00:20:05;4.67;;;4.30;;
9424;SDS011;17139;52.140;11.636;2023-11-21T00:22:33;5.07;;;4.73;;
9424;SDS011;17139;52.140;11.636;2023-11-21T00:25:00;9.30;;;4.23;;
9424;SDS011;17139;52.140;11.636;2023-11-21T00:27:29;9.43;;;3.70;;
9424;SDS011;17139;52.140;11.636;2023-11-21T00:29:56;8.15;;;6.10;;
9424;SDS011;17139;52.140;11.636;2023-11-21T00:32:23;9.23;;;4.57;;
9424;SDS011;17139;52.140;11.636;2023-11-21T00:34:51;6.20;;;4.00;;
9424;SDS011;17139;52.140;11.636;2023-11-21T00:37:21;6.87;;;4.67;;
9424;SDS011;17139;52.140;11.636;2023-11-21T00:39:49;4.90;;;4.40;;
9424;SDS011;17139;52.140;11.636;2023-11-21T00:42:16;7.20;;;4.20;;
9424;SDS011;17139;52.140;11.636;2023-11-21T00:44:43;6.00;;;4.03;;
9424;SDS011;17139;52.140;11.636;2023-11-21T00:47:10;8.77;;;4.53;;
9424;SDS011;17139;52.140;11.636;2023-11-21T00:49:37;8.73;;;4.43;;
9424;SDS011;17139;52.140;11.636;2023-11-21T00:52:06;10.70;;;4.17;;
9424;SDS011;17139;52.140;11.636;2023-11-21T00:54:34;6.70;;;4.57;;
9424;SDS011;17139;52.140;11.636;2023-11-21T00:57:02;7.97;;;5.00;;
9424;SDS011;17139;52.140;11.636;2023-11-21T00:59:29;11.43;;;5.82;;
9424;SDS011;17139;52.140;11.636;2023-11-21T01:01:56;9.37;;;5.10;;
9424;SDS011;17139;52.140;11.636;2023-11-21T01:04:25;7.73;;;4.40;;
9424;SDS011;17139;52.140;11.636;2023-11-21T01:06:53;9.25;;;5.53;;
9424;SDS011;17139;52.140;11.636;2023-11-21T01:09:20;7.67;;;5.47;;
9424;SDS011;17139;52.140;11.636;2023-11-21T01:11:48;6.00;;;4.03;;
9424;SDS011;17139;52.140;11.636;2023-11-21T01:14:17;7.43;;;4.50;;
9424;SDS011;17139;52.140;11.636;2023-11-21T01:16:44;8.40;;;5.00;;
9424;SDS011;17139;52.140;11.636;2023-11-21T01:19:11;5.63;;;4.50;;
9424;SDS011;17139;52.140;11.636;2023-11-21T01:21:39;9.13;;;4.80;;
9424;SDS011;17139;52.140;11.636;2023-11-21T01:24:07;6.97;;;4.90;;
9424;SDS011;17139;52.140;11.636;2023-11-21T01:26:35;7.53;;;5.27;;
9424;SDS011;17139;52.140;11.636;2023-11-21T01:29:04;9.87;;;4.73;;
9424;SDS011;17139;52.140;11.636;2023-11-21T01:31:31;16.53;;;5.80;;
9424;SDS011;17139;52.140;11.636;2023-11-21T01:33:58;13.47;;;5.93;;
9424;SDS011;17139;52.140;11.636;2023-11-21T01:36:29;6.10;;;4.93;;
9424;SDS011;17139;52.140;11.636;2023-11-21T01:38:58;13.93;;;7.50;;
9424;SDS011;17139;52.140;11.636;2023-11-21T01:41:25;8.87;;;5.70;;
9424;SDS011;17139;52.140;11.636;2023-11-21T01:43:53;14.73;;;5.57;;
9424;SDS011;17139;52.140;11.636;2023-11-21T01:46:23;8.33;;;4.97;;
9424;SDS011;17139;52.140;11.636;2023-11-21T01:48:50;13.00;;;5.63;;
9424;SDS011;17139;52.140;11.636;2023-11-21T01:51:20;9.10;;;5.77;;
9424;SDS011;17139;52.140;11.636;2023-11-21T01:53:47;8.60;;;5.53;;
9424;SDS011;17139;52.140;11.636;2023-11-21T01:56:15;9.73;;;5.57;;
9424;SDS011;17139;52.140;11.636;2023-11-21T01:58:43;7.37;;;4.90;;
9424;SDS011;17139;52.140;11.636;2023-11-21T02:01:12;13.07;;;5.57;;
9424;SDS011;17139;52.140;11.636;2023-11-21T02:03:40;5.97;;;5.37;;
9424;SDS011;17139;52.140;11.636;2023-11-21T02:06:08;10.83;;;4.90;;
9424;SDS011;17139;52.140;11.636;2023-11-21T02:08:35;10.00;;;5.87;;
9424;SDS011;17139;52.140;11.636;2023-11-21T02:11:03;6.03;;;4.90;;
9424;SDS011;17139;52.140;11.636;2023-11-21T02:13:31;7.97;;;4.93;;
9424;SDS011;17139;52.140;11.636;2023-11-21T02:15:59;11.45;;;7.18;;
9424;SDS011;17139;52.140;11.636;2023-11-21T02:18:26;11.93;;;6.03;;
9424;SDS011;17139;52.140;11.636;2023-11-21T02:20:56;11.83;;;5.40;;
9424;SDS011;17139;52.140;11.636;2023-11-21T02:23:24;15.77;;;8.60;;
9424;SDS011;17139;52.140;11.636;2023-11-21T02:25:54;11.50;;;6.50;;
9424;SDS011;17139;52.140;11.636;2023-11-21T02:28:21;7.37;;;6.13;;
9424;SDS011;17139;52.140;11.636;2023-11-21T02:30:50;9.70;;;5.73;;
9424;SDS011;17139;52.140;11.636;2023-11-21T02:33:21;7.33;;;5.73;;
9424;SDS011;17139;52.140;11.636;2023-11-21T02:35:48;7.33;;;6.00;;
9424;SDS011;17139;52.140;11.636;2023-11-21T02:38:16;9.10;;;5.40;;
9424;SDS011;17139;52.140;11.636;2023-11-21T02:40:45;7.00;;;5.93;;
9424;SDS011;17139;52.140;11.636;2023-11-21T02:43:12;7.20;;;5.50;;
9424;SDS011;17139;52.140;11.636;2023-11-21T02:45:39;9.50;;;6.63;;
9424;SDS011;17139;52.140;11.636;2023-11-21T02:48:07;14.80;;;6.70;;
9424;SDS011;17139;52.140;11.636;2023-11-21T02:50:34;6.27;;;5.23;;
9424;SDS011;17139;52.140;11.636;2023-11-21T02:53:02;8.83;;;6.57;;
9424;SDS011;17139;52.140;11.636;2023-11-21T02:55:31;19.30;;;9.32;;
9424;SDS011;17139;52.140;11.636;2023-11-21T02:58:02;15.43;;;8.47;;
9424;SDS011;17139;52.140;11.636;2023-11-21T03:00:31;12.52;;;7.72;;
9424;SDS011;17139;52.140;11.636;2023-11-21T03:02:58;18.17;;;7.33;;
9424;SDS011;17139;52.140;11.636;2023-11-21T03:05:25;15.37;;;6.37;;
9424;SDS011;17139;52.140;11.636;2023-11-21T03:07:54;15.60;;;7.30;;
9424;SDS011;17139;52.140;11.636;2023-11-21T03:10:21;9.07;;;6.63;;
9424;SDS011;17139;52.140;11.636;2023-11-21T03:12:49;13.13;;;6.43;;
9424;SDS011;17139;52.140;11.636;2023-11-21T03:15:17;11.27;;;6.70;;
9424;SDS011;17139;52.140;11.636;2023-11-21T03:17:45;10.37;;;5.90;;
9424;SDS011;17139;52.140;11.636;2023-11-21T03:20:14;12.13;;;6.83;;
9424;SDS011;17139;52.140;11.636;2023-11-21T03:22:41;3.10;;;1.90;;
9424;SDS011;17139;52.140;11.636;2023-11-21T03:25:09;0.20;;;0.20;;
9424;SDS011;17139;52.140;11.636;2023-11-21T03:27:37;0.30;;;0.30;;
9424;SDS011;17139;52.140;11.636;2023-11-21T03:30:07;0.20;;;0.20;;
9424;SDS011;17139;52.140;11.636;2023-11-21T03:32:37;0.20;;;0.20;;
9424;SDS011;17139;52.140;11.636;2023-11-21T03:35:04;0.20;;;0.20;;
9424;SDS011;17139;52.140;11.636;2023-11-21T03:37:32;0.20;;;0.20;;
9424;SDS011;17139;52.140;11.636;2023-11-21T03:39:59;0.20;;;0.20;;
9424;SDS011;17139;52.140;11.636;2023-11-21T03:42:29;0.20;;;0.20;;
9424;SDS011;17139;52.140;11.636;2023-11-21T03:44:56;0.20;;;0.20;;
9424;SDS011;17139;52.140;11.636;2023-11-21T03:47:24;0.20;;;0.20;;
9424;SDS011;17139;52.140;11.636;2023-11-21T03:49:54;0.20;;;0.20;;
9424;SDS011;17139;52.140;11.636;2023-11-21T03:52:21;0.30;;;0.30;;
9424;SDS011;17139;52.140;11.636;2023-11-21T03:54:48;0.30;;;0.30;;
9424;SDS011;17139;52.140;11.636;2023-11-21T03:57:15;0.20;;;0.20;;
9424;SDS011;17139;52.140;11.636;2023-11-21T03:59:43;0.20;;;0.20;;
9424;SDS011;17139;52.140;11.636;2023-11-21T04:02:10;0.20;;;0.20;;
9424;SDS011;17139;52.140;11.636;2023-11-21T04:04:37;0.20;;;0.20;;
9424;SDS011;17139;52.140;11.636;2023-11-21T04:07:05;0.30;;;0.30;;
9424;SDS011;17139;52.140;11.636;2023-11-21T04:09:33;0.30;;;0.30;;
9424;SDS011;17139;52.140;11.636;2023-11-21T04:12:01;0.20;;;0.20;;
9424;SDS011;17139;52.140;11.636;2023-11-21T04:14:28;0.20;;;0.20;;
9424;SDS011;17139;52.140;11.636;2023-11-21T04:16:55;0.20;;;0.20;;
9424;SDS011;17139;52.140;11.636;2023-11-21T04:19:23;0.20;;;0.20;;
9424;SDS011;17139;52.140;11.636;2023-11-21T04:21:50;0.20;;;0.20;;
9424;SDS011;17139;52.140;11.636;2023-11-21T04:24:19;0.20;;;0.20;;
9424;SDS011;17139;52.140;11.636;2023-11-21T04:26:46;0.30;;;0.30;;
9424;SDS011;17139;52.140;11.636;2023-11-21T04:29:13;0.30;;;0.30;;
9424;SDS011;17139;52.140;11.636;2023-11-21T04:31:40;0.20;;;0.20;;
9424;SDS011;17139;52.140;11.636;2023-11-21T04:34:08;0.30;;;0.30;;
9424;SDS011;17139;52.140;11.636;2023-11-21T04:36:35;0.20;;;0.20;;
9424;SDS011;17139;52.140;11.636;2023-11-21T04:39:03;0.20;;;0.20;;
9424;SDS011;17139;52.140;11.636;2023-11-21T04:41:33;0.20;;;0.20;;
9424;SDS011;17139;52.140;11.636;2023-11-21T04:43:59;0.20;;;0.20;;
9424;SDS011;17139;52.140;11.636;2023-11-21T04:46:26;0.20;;;0.20;;
9424;SDS011;17139;52.140;11.636;2023-11-21T04:48:53;0.20;;;0.20;;
9424;SDS011;17139;52.140;11.636;2023-11-21T04:51:20;0.20;;;0.20;;
9424;SDS011;17139;52.140;11.636;2023-11-21T04:53:47;0.20;;;0.20;;
9424;SDS011;17139;52.140;11.636;2023-11-21T04:56:15;0.30;;;0.30;;
9424;SDS011;17139;52.140;11.636;2023-11-21T04:58:43;0.20;;;0.20;;
9424;SDS011;17139;52.140;11.636;2023-11-21T05:01:13;0.20;;;0.20;;
9424;SDS011;17139;52.140;11.636;2023-11-21T05:03:41;0.20;;;0.20;;
9424;SDS011;17139;52.140;11.636;2023-11-21T05:06:09;0.30;;;0.30;;
9424;SDS011;17139;52.140;11.636;2023-11-21T05:08:36;0.20;;;0.20;;
9424;SDS011;17139;52.140;11.636;2023-11-21T05:11:04;0.43;;;0.43;;
9424;SDS011;17139;52.140;11.636;2023-11-21T05:13:33;0.20;;;0.20;;
9424;SDS011;17139;52.140;11.636;2023-11-21T05:16:02;0.20;;;0.20;;
9424;SDS011;17139;52.140;11.636;2023-11-21T05:18:32;0.20;;;0.20;;
9424;SDS011;17139;52.140;11.636;2023-11-21T05:20:59;0.20;;;0.20;;
9424;SDS011;17139;52.140;11.636;2023-11-21T05:23:27;0.20;;;0.20;;
9424;SDS011;17139;52.140;11.636;2023-11-21T05:25:54;0.30;;;0.30;;
9424;SDS011;17139;52.140;11.636;2023-11-21T05:28:22;0.20;;;0.20;;
9424;SDS011;17139;52.140;11.636;2023-11-21T05:30:50;0.30;;;0.30;;
9424;SDS011;17139;52.140;11.636;2023-11-21T05:33:19;0.30;;;0.30;;
9424;SDS011;17139;52.140;11.636;2023-11-21T05:35:47;0.20;;;0.20;;
9424;SDS011;17139;52.140;11.636;2023-11-21T05:38:14;0.20;;;0.20;;
9424;SDS011;17139;52.140;11.636;2023-11-21T05:40:41;0.30;;;0.30;;
9424;SDS011;17139;52.140;11.636;2023-11-21T05:43:09;0.30;;;0.30;;
9424;SDS011;17139;52.140;11.636;2023-11-21T05:45:37;0.50;;;0.50;;
9424;SDS011;17139;52.140;11.636;2023-11-21T05:48:04;0.20;;;0.20;;
9424;SDS011;17139;52.140;11.636;2023-11-21T05:50:33;0.30;;;0.30;;
9424;SDS011;17139;52.140;11.636;2023-11-21T05:53:00;0.50;;;0.50;;
9424;SDS011;17139;52.140;11.636;2023-11-21T05:55:28;0.30;;;0.30;;
9424;SDS011;17139;52.140;11.636;2023-11-21T05:57:56;0.20;;;0.20;;
9424;SDS011;17139;52.140;11.636;2023-11-21T06:00:23;0.20;;;0.20;;
9424;SDS011;17139;52.140;11.636;2023-11-21T06:02:53;0.30;;;0.30;;
9424;SDS011;17139;52.140;11.636;2023-11-21T06:05:21;0.30;;;0.30;;
9424;SDS011;17139;52.140;11.636;2023-11-21T06:07:51;0.27;;;0.27;;
9424;SDS011;17139;52.140;11.636;2023-11-21T06:10:19;0.30;;;0.30;;
9424;SDS011;17139;52.140;11.636;2023-11-21T06:12:48;0.20;;;0.20;;
9424;SDS011;17139;52.140;11.636;2023-11-21T06:15:16;0.30;;;0.30;;
9424;SDS011;17139;52.140;11.636;2023-11-21T06:17:44;0.20;;;0.20;;
9424;SDS011;17139;52.140;11.636;2023-11-21T06:20:14;0.30;;;0.30;;
9424;SDS011;17139;52.140;11.636;2023-11-21T06:22:44;0.27;;;0.27;;
9424;SDS011;17139;52.140;11.636;2023-11-21T06:25:15;0.30;;;0.30;;
9424;SDS011;17139;52.140;11.636;2023-11-21T06:27:43;0.30;;;0.30;;
9424;SDS011;17139;52.140;11.636;2023-11-21T06:30:11;0.20;;;0.20;;
9424;SDS011;17139;52.140;11.636;2023-11-21T06:32:40;0.30;;;0.30;;
9424;SDS011;17139;52.140;11.636;2023-11-21T06:35:10;0.20;;;0.20;;
9424;SDS011;17139;52.140;11.636;2023-11-21T06:37:38;0.20;;;0.20;;
9424;SDS011;17139;52.140;11.636;2023-11-21T06:40:06;0.20;;;0.20;;
9424;SDS011;17139;52.140;11.636;2023-11-21T06:42:36;0.20;;;0.20;;
9424;SDS011;17139;52.140;11.636;2023-11-21T06:45:05;0.20;;;0.20;;
9424;SDS011;17139;52.140;11.636;2023-11-21T06:47:32;0.30;;;0.30;;
9424;SDS011;17139;52.140;11.636;2023-11-21T06:50:00;0.20;;;0.20;;
9424;SDS011;17139;52.140;11.636;2023-11-21T06:52:27;0.27;;;0.27;;
9424;SDS011;17139;52.140;11.636;2023-11-21T06:54:54;0.20;;;0.20;;
9424;SDS011;17139;52.140;11.636;2023-11-21T06:57:22;0.30;;;0.30;;
9424;SDS011;17139;52.140;11.636;2023-11-21T06:59:51;0.20;;;0.20;;
9424;SDS011;17139;52.140;11.636;2023-11-21T07:02:18;0.20;;;0.20;;
9424;SDS011;17139;52.140;11.636;2023-11-21T07:04:45;0.20;;;0.20;;
9424;SDS011;17139;52.140;11.636;2023-11-21T07:07:12;0.20;;;0.20;;
9424;SDS011;17139;52.140;11.636;2023-11-21T07:09:40;0.20;;;0.20;;
9424;SDS011;17139;52.140;11.636;2023-11-21T07:12:07;0.20;;;0.20;;
9424;SDS011;17139;52.140;11.636;2023-11-21T07:14:36;0.20;;;0.20;;
9424;SDS011;17139;52.140;11.636;2023-11-21T07:17:05;0.20;;;0.20;;
9424;SDS011;17139;52.140;11.636;2023-11-21T07:19:33;0.30;;;0.30;;
9424;SDS011;17139;52.140;11.636;2023-11-21T07:22:01;0.20;;;0.20;;
9424;SDS011;17139;52.140;11.636;2023-11-21T07:24:28;0.30;;;0.30;;
9424;SDS011;17139;52.140;11.636;2023-11-21T07:26:57;0.27;;;0.27;;
9424;SDS011;17139;52.140;11.636;2023-11-21T07:29:24;0.30;;;0.30;;
9424;SDS011;17139;52.140;11.636;2023-11-21T07:31:51;0.20;;;0.20;;
9424;SDS011;17139;52.140;11.636;2023-11-21T07:34:20;0.20;;;0.20;;
9424;SDS011;17139;52.140;11.636;2023-11-21T07:36:48;1.13;;;1.07;;
9424;SDS011;17139;52.140;11.636;2023-11-21T07:39:15;0.77;;;0.77;;
9424;SDS011;17139;52.140;11.636;2023-11-21T07:41:42;0.20;;;0.20;;
9424;SDS011;17139;52.140;11.636;2023-11-21T07:44:14;0.20;;;0.20;;
9424;SDS011;17139;52.140;11.636;2023-11-21T07:46:42;0.40;;;0.40;;
9424;SDS011;17139;52.140;11.636;2023-11-21T07:49:09;0.20;;;0.20;;
9424;SDS011;17139;52.140;11.636;2023-11-21T07:51:38;0.20;;;0.20;;
9424;SDS011;17139;52.140;11.636;2023-11-21T07:54:05;0.30;;;0.30;;
9424;SDS011;17139;52.140;11.636;2023-11-21T07:56:32;0.40;;;0.40;;
9424;SDS011;17139;52.140;11.636;2023-11-21T07:58:59;0.20;;;0.20;;
9424;SDS011;17139;52.140;11.636;2023-11-21T08:01:26;0.20;;;0.20;;
9424;SDS011;17139;52.140;11.636;2023-11-21T08:03:53;0.20;;;0.20;;
9424;SDS011;17139;52.140;11.636;2023-11-21T08:06:24;0.20;;;0.20;;
9424;SDS011;17139;52.140;11.636;2023-11-21T08:08:52;0.20;;;0.20;;
9424;SDS011;17139;52.140;11.636;2023-11-21T08:11:19;0.30;;;0.30;;
9424;SDS011;17139;52.140;11.636;2023-11-21T08:13:47;0.20;;;0.20;;
9424;SDS011;17139;52.140;11.636;2023-11-21T08:16:14;0.20;;;0.20;;
9424;SDS011;17139;52.140;11.636;2023-11-21T08:18:42;0.30;;;0.30;;
9424;SDS011;17139;52.140;11.636;2023-11-21T08:21:09;0.30;;;0.30;;
9424;SDS011;17139;52.140;11.636;2023-11-21T08:23:37;0.23;;;0.23;;
9424;SDS011;17139;52.140;11.636;2023-11-21T08:26:06;0.28;;;0.28;;
9424;SDS011;17139;52.140;11.636;2023-11-21T08:28:34;0.30;;;0.30;;
9424;SDS011;17139;52.140;11.636;2023-11-21T08:31:01;0.20;;;0.20;;
9424;SDS011;17139;52.140;11.636;2023-11-21T08:33:29;0.30;;;0.30;;
9424;SDS011;17139;52.140;11.636;2023-11-21T08:35:56;0.30;;;0.30;;
9424;SDS011;17139;52.140;11.636;2023-11-21T08:38:23;0.20;;;0.20;;
9424;SDS011;17139;52.140;11.636;2023-11-21T08:40:50;0.20;;;0.20;;
9424;SDS011;17139;52.140;11.636;2023-11-21T08:43:19;0.27;;;0.27;;
9424;SDS011;17139;52.140;11.636;2023-11-21T08:45:46;0.20;;;0.20;;
9424;SDS011;17139;52.140;11.636;2023-11-21T08:48:13;0.30;;;0.30;;
9424;SDS011;17139;52.140;11.636;2023-11-21T08:50:40;0.30;;;0.30;;
9424;SDS011;17139;52.140;11.636;2023-11-21T08:53:07;0.20;;;0.20;;
9424;SDS011;17139;52.140;11.636;2023-11-21T08:55:36;0.20;;;0.20;;
9424;SDS011;17139;52.140;11.636;2023-11-21T08:58:03;0.20;;;0.20;;
9424;SDS011;17139;52.140;11.636;2023-11-21T09:00:33;0.30;;;0.30;;
9424;SDS011;17139;52.140;11.636;2023-11-21T09:03:00;0.30;;;0.30;;
9424;SDS011;17139;52.140;11.636;2023-11-21T09:05:28;0.20;;;0.20;;
9424;SDS011;17139;52.140;11.636;2023-11-21T09:07:55;0.50;;;0.50;;
9424;SDS011;17139;52.140;11.636;2023-11-21T09:10:22;0.50;;;0.50;;
9424;SDS011;17139;52.140;11.636;2023-11-21T09:12:50;0.30;;;0.30;;
9424;SDS011;17139;52.140;11.636;2023-11-21T09:15:18;0.30;;;0.30;;
9424;SDS011;17139;52.140;11.636;2023-11-21T09:17:47;0.30;;;0.30;;
9424;SDS011;17139;52.140;11.636;2023-11-21T09:20:14;0.30;;;0.30;;
9424;SDS011;17139;52.140;11.636;2023-11-21T09:22:41;0.20;;;0.20;;
9424;SDS011;17139;52.140;11.636;2023-11-21T09:25:09;0.20;;;0.20;;
9424;SDS011;17139;52.140;11.636;2023-11-21T09:27:37;0.20;;;0.20;;
9424;SDS011;17139;52.140;11.636;2023-11-21T09:30:05;0.30;;;0.30;;
9424;SDS011;17139;52.140;11.636;2023-11-21T09:32:35;0.50;;;0.50;;
9424;SDS011;17139;52.140;11.636;2023-11-21T09:35:05;0.30;;;0.30;;
9424;SDS011;17139;52.140;11.636;2023-11-21T09:37:33;0.20;;;0.20;;
9424;SDS011;17139;52.140;11.636;2023-11-21T09:40:03;0.20;;;0.20;;
9424;SDS011;17139;52.140;11.636;2023-11-21T09:42:32;0.20;;;0.20;;
9424;SDS011;17139;52.140;11.636;2023-11-21T09:45:05;0.20;;;0.20;;
9424;SDS011;17139;52.140;11.636;2023-11-21T09:47:43;0.30;;;0.30;;
9424;SDS011;17139;52.140;11.636;2023-11-21T09:50:11;0.30;;;0.30;;
9424;SDS011;17139;52.140;11.636;2023-11-21T09:52:44;0.30;;;0.30;;
9424;SDS011;17139;52.140;11.636;2023-11-21T09:55:20;0.30;;;0.30;;
9424;SDS011;17139;52.140;11.636;2023-11-21T09:57:48;0.50;;;0.50;;
9424;SDS011;17139;52.140;11.636;2023-11-21T10:00:16;0.30;;;0.30;;
9424;SDS011;17139;52.140;11.636;2023-11-21T10:02:45;0.40;;;0.40;;
9424;SDS011;17139;52.140;11.636;2023-11-21T10:05:16;0.30;;;0.30;;
9424;SDS011;17139;52.140;11.636;2023-11-21T10:07:47;0.30;;;0.30;;
9424;SDS011;17139;52.140;11.636;2023-11-21T10:10:17;0.23;;;0.23;;
9424;SDS011;17139;52.140;11.636;2023-11-21T10:12:48;0.20;;;0.20;;
9424;SDS011;17139;52.140;11.636;2023-11-21T10:15:18;0.30;;;0.30;;
9424;SDS011;17139;52.140;11.636;2023-11-21T10:17:48;0.30;;;0.30;;
9424;SDS011;17139;52.140;11.636;2023-11-21T10:20:20;0.30;;;0.30;;
9424;SDS011;17139;52.140;11.636;2023-11-21T10:22:47;0.40;;;0.40;;
9424;SDS011;17139;52.140;11.636;2023-11-21T10:25:14;0.30;;;0.30;;
9424;SDS011;17139;52.140;11.636;2023-11-21T10:27:41;0.27;;;0.27;;
9424;SDS011;17139;52.140;11.636;2023-11-21T10:30:09;0.30;;;0.30;;
9424;SDS011;17139;52.140;11.636;2023-11-21T10:32:38;0.20;;;0.20;;
9424;SDS011;17139;52.140;11.636;2023-11-21T10:35:06;0.23;;;0.23;;
9424;SDS011;17139;52.140;11.636;2023-11-21T10:37:36;0.20;;;0.20;;
9424;SDS011;17139;52.140;11.636;2023-11-21T10:40:05;0.30;;;0.30;;
9424;SDS011;17139;52.140;11.636;2023-11-21T10:42:34;0.30;;;0.30;;
9424;SDS011;17139;52.140;11.636;2023-11-21T10:45:01;0.20;;;0.20;;
9424;SDS011;17139;52.140;11.636;2023-11-21T10:47:35;0.30;;;0.30;;
9424;SDS011;17139;52.140;11.636;2023-11-21T10:50:02;0.30;;;0.30;;
9424;SDS011;17139;52.140;11.636;2023-11-21T10:52:31;0.20;;;0.20;;
9424;SDS011;17139;52.140;11.636;2023-11-21T10:55:03;0.30;;;0.30;;
9424;SDS011;17139;52.140;11.636;2023-11-21T10:57:43;0.30;;;0.30;;
9424;SDS011;17139;52.140;11.636;2023-11-21T11:00:13;0.30;;;0.30;;
9424;SDS011;17139;52.140;11.636;2023-11-21T11:02:44;0.40;;;0.30;;
9424;SDS011;17139;52.140;11.636;2023-11-21T11:05:13;0.30;;;0.30;;
9424;SDS011;17139;52.140;11.636;2023-11-21T11:07:41;0.30;;;0.30;;
9424;SDS011;17139;52.140;11.636;2023-11-21T11:10:12;0.20;;;0.20;;
9424;SDS011;17139;52.140;11.636;2023-11-21T11:12:40;0.27;;;0.27;;
9424;SDS011;17139;52.140;11.636;2023-11-21T11:15:08;0.30;;;0.30;;
9424;SDS011;17139;52.140;11.636;2023-11-21T11:17:36;0.30;;;0.30;;
9424;SDS011;17139;52.140;11.636;2023-11-21T11:20:05;0.30;;;0.30;;
9424;SDS011;17139;52.140;11.636;2023-11-21T11:22:36;0.30;;;0.30;;
9424;SDS011;17139;52.140;11.636;2023-11-21T11:25:13;0.30;;;0.30;;
9424;SDS011;17139;52.140;11.636;2023-11-21T11:27:58;0.30;;;0.30;;
9424;SDS011;17139;52.140;11.636;2023-11-21T11:30:35;0.20;;;0.20;;
9424;SDS011;17139;52.140;11.636;2023-11-21T11:33:13;0.30;;;0.30;;
9424;SDS011;17139;52.140;11.636;2023-11-21T11:36:02;0.20;;;0.20;;
9424;SDS011;17139;52.140;11.636;2023-11-21T11:38:33;0.30;;;0.30;;
9424;SDS011;17139;52.140;11.636;2023-11-21T11:41:03;0.30;;;0.30;;
9424;SDS011;17139;52.140;11.636;2023-11-21T11:43:31;0.30;;;0.30;;
9424;SDS011;17139;52.140;11.636;2023-11-21T11:46:09;0.20;;;0.20;;
9424;SDS011;17139;52.140;11.636;2023-11-21T11:48:38;0.30;;;0.30;;
9424;SDS011;17139;52.140;11.636;2023-11-21T11:51:06;0.40;;;0.40;;
9424;SDS011;17139;52.140;11.636;2023-11-21T11:53:40;0.20;;;0.20;;
9424;SDS011;17139;52.140;11.636;2023-11-21T11:56:23;0.27;;;0.27;;
9424;SDS011;17139;52.140;11.636;2023-11-21T11:58:56;0.30;;;0.30;;
9424;SDS011;17139;52.140;11.636;2023-11-21T12:01:24;0.30;;;0.30;;
9424;SDS011;17139;52.140;11.636;2023-11-21T12:06:56;0.20;;;0.20;;
9424;SDS011;17139;52.140;11.636;2023-11-21T12:09:27;0.30;;;0.30;;
9424;SDS011;17139;52.140;11.636;2023-11-21T12:11:57;0.20;;;0.20;;
9424;SDS011;17139;52.140;11.636;2023-11-21T12:14:25;0.30;;;0.30;;
9424;SDS011;17139;52.140;11.636;2023-11-21T12:16:52;0.20;;;0.20;;
9424;SDS011;17139;52.140;11.636;2023-11-21T12:19:20;0.30;;;0.30;;
9424;SDS011;17139;52.140;11.636;2023-11-21T12:21:48;0.20;;;0.20;;
9424;SDS011;17139;52.140;11.636;2023-11-21T12:24:16;0.23;;;0.23;;
9424;SDS011;17139;52.140;11.636;2023-11-21T12:26:43;0.30;;;0.30;;
9424;SDS011;17139;52.140;11.636;2023-11-21T12:29:12;0.30;;;0.30;;
9424;SDS011;17139;52.140;11.636;2023-11-21T12:31:38;0.30;;;0.30;;
9424;SDS011;17139;52.140;11.636;2023-11-21T12:34:06;0.57;;;0.57;;
9424;SDS011;17139;52.140;11.636;2023-11-21T12:36:36;0.30;;;0.30;;
9424;SDS011;17139;52.140;11.636;2023-11-21T12:39:04;0.30;;;0.30;;
9424;SDS011;17139;52.140;11.636;2023-11-21T12:41:34;0.30;;;0.30;;
9424;SDS011;17139;52.140;11.636;2023-11-21T12:44:01;0.20;;;0.20;;
9424;SDS011;17139;52.140;11.636;2023-11-21T12:46:29;0.30;;;0.30;;
9424;SDS011;17139;52.140;11.636;2023-11-21T12:49:00;0.20;;;0.20;;
9424;SDS011;17139;52.140;11.636;2023-11-21T12:51:27;0.30;;;0.30;;
9424;SDS011;17139;52.140;11.636;2023-11-21T12:53:55;0.20;;;0.20;;
9424;SDS011;17139;52.140;11.636;2023-11-21T12:56:23;0.20;;;0.20;;
9424;SDS011;17139;52.140;11.636;2023-11-21T12:58:53;0.30;;;0.30;;
9424;SDS011;17139;52.140;11.636;2023-11-21T13:01:25;0.30;;;0.30;;
9424;SDS011;17139;52.140;11.636;2023-11-21T13:03:56;0.30;;;0.30;;
9424;SDS011;17139;52.140;11.636;2023-11-21T13:06:25;0.20;;;0.20;;
9424;SDS011;17139;52.140;11.636;2023-11-21T13:08:52;0.30;;;0.30;;
9424;SDS011;17139;52.140;11.636;2023-11-21T13:11:22;0.30;;;0.30;;
9424;SDS011;17139;52.140;11.636;2023-11-21T13:13:51;0.30;;;0.30;;
9424;SDS011;17139;52.140;11.636;2023-11-21T13:16:19;0.20;;;0.20;;
9424;SDS011;17139;52.140;11.636;2023-11-21T13:18:46;0.30;;;0.30;;
9424;SDS011;17139;52.140;11.636;2023-11-21T13:21:15;0.30;;;0.30;;
9424;SDS011;17139;52.140;11.636;2023-11-21T13:23:43;0.20;;;0.20;;
9424;SDS011;17139;52.140;11.636;2023-11-21T13:26:13;0.30;;;0.30;;
9424;SDS011;17139;52.140;11.636;2023-11-21T13:28:41;0.20;;;0.20;;
9424;SDS011;17139;52.140;11.636;2023-11-21T13:31:11;0.20;;;0.20;;
9424;SDS011;17139;52.140;11.636;2023-11-21T13:33:57;0.20;;;0.20;;
9424;SDS011;17139;52.140;11.636;2023-11-21T13:36:31;0.20;;;0.20;;
9424;SDS011;17139;52.140;11.636;2023-11-21T13:39:00;0.20;;;0.20;;
9424;SDS011;17139;52.140;11.636;2023-11-21T13:41:32;0.30;;;0.30;;
9424;SDS011;17139;52.140;11.636;2023-11-21T13:43:59;0.30;;;0.30;;
9424;SDS011;17139;52.140;11.636;2023-11-21T13:46:39;0.30;;;0.30;;
9424;SDS011;17139;52.140;11.636;2023-11-21T13:49:06;0.20;;;0.20;;
9424;SDS011;17139;52.140;11.636;2023-11-21T13:51:36;0.30;;;0.30;;
9424;SDS011;17139;52.140;11.636;2023-11-21T13:54:06;0.27;;;0.27;;
9424;SDS011;17139;52.140;11.636;2023-11-21T13:56:34;0.27;;;0.27;;
9424;SDS011;17139;52.140;11.636;2023-11-21T13:59:02;0.30;;;0.30;;
9424;SDS011;17139;52.140;11.636;2023-11-21T14:01:38;0.20;;;0.20;;
9424;SDS011;17139;52.140;11.636;2023-11-21T14:04:19;0.20;;;0.20;;
9424;SDS011;17139;52.140;11.636;2023-11-21T14:07:02;0.30;;;0.30;;
9424;SDS011;17139;52.140;11.636;2023-11-21T14:09:45;0.20;;;0.20;;
9424;SDS011;17139;52.140;11.636;2023-11-21T14:12:14;0.30;;;0.30;;
9424;SDS011;17139;52.140;11.636;2023-11-21T14:14:42;0.20;;;0.20;;
9424;SDS011;17139;52.140;11.636;2023-11-21T14:17:10;0.20;;;0.20;;
9424;SDS011;17139;52.140;11.636;2023-11-21T14:19:37;0.30;;;0.30;;
9424;SDS011;17139;52.140;11.636;2023-11-21T14:22:09;0.30;;;0.30;;
9424;SDS011;17139;52.140;11.636;2023-11-21T14:24:37;0.23;;;0.23;;
9424;SDS011;17139;52.140;11.636;2023-11-21T14:27:09;0.30;;;0.30;;
9424;SDS011;17139;52.140;11.636;2023-11-21T14:29:36;0.23;;;0.23;;
9424;SDS011;17139;52.140;11.636;2023-11-21T14:32:05;0.30;;;0.30;;
9424;SDS011;17139;52.140;11.636;2023-11-21T14:34:33;0.30;;;0.30;;
9424;SDS011;17139;52.140;11.636;2023-11-21T14:37:00;0.27;;;0.27;;
9424;SDS011;17139;52.140;11.636;2023-11-21T14:39:30;0.40;;;0.40;;
9424;SDS011;17139;52.140;11.636;2023-11-21T14:42:03;0.20;;;0.20;;
9424;SDS011;17139;52.140;11.636;2023-11-21T14:44:32;0.30;;;0.30;;
9424;SDS011;17139;52.140;11.636;2023-11-21T14:47:03;0.20;;;0.20;;
9424;SDS011;17139;52.140;11.636;2023-11-21T14:49:39;0.20;;;0.20;;
9424;SDS011;17139;52.140;11.636;2023-11-21T14:52:17;0.67;;;0.40;;
9424;SDS011;17139;52.140;11.636;2023-11-21T14:54:59;0.20;;;0.20;;
9424;SDS011;17139;52.140;11.636;2023-11-21T14:57:40;0.20;;;0.20;;